Latest Weather Observations for Coolangatta

IDQ60901

Issued at 7:21 am EST Saturday 28 February 2015 (issued every 10 minutes, with the page automatically refreshed every 10 minutes)

About weather observations | Map of Brisbane area stations | Latest observations for Brisbane area | Other Formats
Station Details ID: 040717 Name: COOLANGATTA Lat: -28.17 Lon: 153.51 Height: 4.0 m
Data from the previous 72 hours. | See also: Recent months at Coolangatta
Date/Time
EST
Tmp

°C
App
Tmp
°C
Dew
Point
°C
Rel
Hum
%
Delta-T

°C
Wind Press
QNH
hPa
Press
MSL
hPa
Rain
since
9 am
mm
Dir
 
Spd
km/h
Gust
km/h
Spd
kts
Gust
kts
28/07:00am 22.3 25.1 20.9 92 0.9 SW 7 13 4 7 1010.8 1010.7 45.4
28/06:00am 21.0 23.5 20.3 96 0.5 SW 7 11 4 6 1010.4 1010.3 45.4
28/05:30am 21.3 23.3 20.8 97 0.3 WSW 11 13 6 7 1010.0 1009.9 45.4
28/05:00am 21.1 24.6 20.4 96 0.5 NW 2 9 1 5 1010.0 1009.9 45.4
28/04:30am 21.2 24.0 20.4 95 0.5 WNW 6 7 3 4 1010.1 1010.0 45.4
28/04:00am 21.3 25.3 20.5 95 0.5 CALM 0 0 0 0 1009.8 1009.7 45.4
28/03:30am 21.3 24.9 20.5 95 0.5 S 2 6 1 3 1009.6 1009.5 45.4
28/03:00am 21.5 24.3 20.8 96 0.5 SW 7 11 4 6 1009.8 1009.7 45.4
28/02:30am 21.5 23.9 20.8 96 0.5 WSW 9 13 5 7 1010.0 1009.9 45.4
28/02:25am 21.6 23.7 20.9 96 0.5 WSW 11 13 6 7 1010.0 1009.9 45.4
28/02:00am 21.7 25.9 21.0 96 0.5 CALM 0 0 0 0 1010.2 1010.1 45.0
28/01:50am 21.8 24.7 21.0 95 0.5 WNW 7 13 4 7 1010.2 1010.1 44.6
28/01:30am 21.8 24.9 21.0 95 0.5 W 6 15 3 8 1010.4 1010.3 43.2
28/01:00am 21.6 23.7 20.9 96 0.5 WNW 11 19 6 10 1010.5 1010.4 40.6
28/12:50am 21.6 24.0 20.9 96 0.5 S 9 15 5 8 1010.6 1010.5 38.8
28/12:48am 21.5 23.9 20.8 96 0.5 S 9 17 5 9 1010.6 1010.5 38.4
28/12:38am 21.6 22.9 20.9 96 0.5 SW 15 20 8 11 1010.5 1010.4 33.2
28/12:30am 21.6 22.9 20.8 95 0.5 WSW 15 20 8 11 1010.4 1010.3 29.4
28/12:25am 21.6 23.2 20.8 95 0.5 WSW 13 17 7 9 1010.4 1010.3 27.2
28/12:00am 22.0 23.7 21.0 94 0.7 WNW 13 20 7 11 1010.4 1010.3 23.4
 
Date/Time
EST
Tmp

°C
App
Tmp
°C
Dew
Point
°C
Rel
Hum
%
Delta-T

°C
Wind Press
QNH
hPa
Press
MSL
hPa
Rain
since
9 am
mm
Dir
 
Spd
km/h
Gust
km/h
Spd
kts
Gust
kts
27/11:30pm 22.4 25.1 21.4 94 0.7 WSW 9 13 5 7 1010.5 1010.4 10.6
27/11:11pm 22.3 23.9 20.8 91 1.0 WSW 13 17 7 9 1010.6 1010.5 3.4
27/10:39pm 24.0 25.9 21.3 85 1.8 N 13 20 7 11 1010.2 1010.1 0.2
27/10:30pm 24.8 27.2 21.5 82 2.2 N 11 17 6 9 1010.2 1010.1 0.0
27/10:00pm 25.4 25.8 20.6 75 3.1 NE 19 26 10 14 1010.0 1009.9 0.0
27/09:00pm 25.5 26.5 20.3 73 3.4 NNE 15 19 8 10 1010.3 1010.2 0.0
27/08:30pm 25.7 26.9 19.8 70 3.8 NE 13 17 7 9 1010.3 1010.2 0.0
27/08:00pm 25.7 26.0 19.6 69 3.9 NE 17 20 9 11 1009.8 1009.7 0.0
27/07:30pm 25.6 26.2 19.5 69 3.9 NE 15 20 8 11 1009.4 1009.3 0.0
27/07:00pm 25.5 26.5 19.4 69 3.9 NE 13 17 7 9 1009.2 1009.1 0.0
27/06:30pm 25.5 26.5 19.4 69 3.9 NE 13 17 7 9 1008.8 1008.7 0.0
27/06:00pm 25.6 25.9 19.7 70 3.8 NE 17 20 9 11 1008.3 1008.2 0.0
27/05:30pm 25.9 26.7 19.8 69 4.0 NE 15 19 8 10 1008.3 1008.2 0.0
27/05:00pm 26.1 26.7 20.2 70 3.9 NNE 17 22 9 12 1007.9 1007.8 0.0
27/04:30pm 26.9 27.2 20.3 67 4.3 NE 19 22 10 12 1007.4 1007.3 0.0
27/04:00pm 27.3 27.8 20.1 64 4.7 NNE 17 24 9 13 1007.3 1007.2 0.0
27/03:30pm 27.2 27.6 19.8 64 4.8 NNE 17 22 9 12 1007.3 1007.2 0.0
27/03:00pm 27.3 27.8 20.9 68 4.2 NNE 19 22 10 12 1007.4 1007.3 0.0
27/02:30pm 26.3 27.0 20.4 70 3.9 NE 17 22 9 12 1007.4 1007.3 0.0
27/02:00pm 26.5 26.0 19.1 64 4.8 NE 20 24 11 13 1007.3 1007.2 0.0
27/01:30pm 28.1 28.6 21.1 65 4.6 NNE 20 26 11 14 1007.6 1007.5 0.0
27/01:00pm 27.3 27.2 19.9 64 4.8 NNE 20 24 11 13 1008.0 1007.9 0.0
27/12:30pm 26.8 26.4 19.4 64 4.8 NNE 20 26 11 14 1008.2 1008.1 0.0
27/12:00pm 27.8 28.3 21.1 67 4.5 NNE 20 28 11 15 1008.3 1008.2 0.0
27/11:30am 27.2 27.1 20.0 64 4.7 NNE 20 24 11 13 1008.7 1008.6 0.0
27/11:00am 27.3 27.5 20.6 67 4.4 NNE 20 26 11 14 1009.1 1009.0 0.0
27/10:30am 27.1 27.2 20.4 66 4.4 N 20 26 11 14 1009.4 1009.3 0.0
27/10:00am 26.6 27.3 20.4 69 4.1 N 17 24 9 13 1009.5 1009.4 0.0
27/09:30am 26.0 27.9 20.6 72 3.5 NW 11 17 6 9 1009.5 1009.4 0.0
27/09:00am 25.1 26.6 20.6 76 2.9 WNW 13 17 7 9 1009.6 1009.5 0.0
27/08:30am 24.6 27.0 20.9 80 2.4 NW 9 13 5 7 1009.1 1009.0 0.0
27/08:00am 24.0 26.0 20.7 82 2.2 NNW 11 15 6 8 1008.8 1008.7 0.0
27/07:30am 23.5 25.7 21.2 87 1.5 NW 11 15 6 8 1008.9 1008.8 0.0
27/07:00am 22.7 25.4 20.6 88 1.4 NW 7 9 4 5 1008.7 1008.6 0.0
27/06:30am 22.2 25.0 20.5 90 1.1 W 6 9 3 5 1009.4 1009.3 0.0
27/06:00am 22.0 23.9 20.5 91 1.0 WSW 11 15 6 8 1009.6 1009.5 0.0
27/05:30am 21.8 24.4 20.4 92 0.9 WSW 7 9 4 5 1009.1 1009.0 0.0
27/05:00am 21.9 25.0 20.2 90 1.1 W 4 7 2 4 1008.6 1008.5 0.0
27/04:30am 21.9 24.7 20.4 91 1.0 W 6 9 3 5 1008.5 1008.4 0.0
27/04:00am 22.2 24.7 20.3 89 1.2 S 7 11 4 6 1008.2 1008.1 0.0
27/03:30am 22.3 23.8 20.6 90 1.1 WSW 13 17 7 9 1008.5 1008.4 0.0
27/03:00am 22.0 25.1 20.3 90 1.1 WSW 4 9 2 5 1007.4 1007.3 0.0
27/02:30am 22.4 25.2 20.5 89 1.2 SSW 6 9 3 5 1007.5 1007.4 0.0
27/02:00am 22.6 25.5 20.7 89 1.2 SW 6 7 3 4 1008.1 1008.0 0.0
27/01:30am 22.6 25.3 20.7 89 1.2 WSW 7 9 4 5 1008.1 1008.0 0.0
27/01:00am 22.7 25.5 20.4 87 1.5 SW 6 7 3 4 1008.3 1008.2 0.0
27/12:30am 22.7 24.7 20.0 85 1.7 W 9 11 5 6 1008.7 1008.6 0.0
27/12:00am 23.0 25.2 20.3 85 1.7 W 9 11 5 6 1008.8 1008.7 0.0
 
Date/Time
EST
Tmp

°C
App
Tmp
°C
Dew
Point
°C
Rel
Hum
%
Delta-T

°C
Wind Press
QNH
hPa
Press
MSL
hPa
Rain
since
9 am
mm
Dir
 
Spd
km/h
Gust
km/h
Spd
kts
Gust
kts
26/11:30pm 23.6 27.1 20.3 82 2.1 SW 2 6 1 3 1009.0 1008.9 0.0
26/11:00pm 24.9 26.8 19.7 73 3.4 ENE 9 13 5 7 1009.1 1009.0 0.0
26/10:30pm 25.0 26.3 19.4 71 3.6 ENE 11 17 6 9 1009.3 1009.2 0.0
26/10:00pm 25.1 26.0 19.2 70 3.8 ENE 13 17 7 9 1009.3 1009.2 0.0
26/09:30pm 25.1 26.5 19.5 71 3.6 ENE 11 13 6 7 1009.4 1009.3 0.0
26/09:00pm 25.0 26.0 19.4 71 3.6 ENE 13 17 7 9 1009.3 1009.2 0.0
26/08:30pm 25.0 26.3 19.4 71 3.6 ENE 11 13 6 7 1009.2 1009.1 0.0
26/08:00pm 24.9 25.9 19.5 72 3.5 ENE 13 17 7 9 1009.0 1008.9 0.0
26/07:30pm 24.9 26.7 19.5 72 3.5 ENE 9 15 5 8 1008.9 1008.8 0.0
26/07:00pm 24.7 26.5 19.5 73 3.3 ESE 9 11 5 6 1008.5 1008.4 0.0
26/06:30pm 24.6 26.3 19.4 73 3.3 SE 9 13 5 7 1008.6 1008.5 0.0
26/06:00pm 25.0 25.7 18.9 69 3.9 ESE 13 17 7 9 1008.0 1007.9 0.0
26/05:30pm 25.3 25.5 18.5 66 4.3 ESE 15 19 8 10 1007.8 1007.7 0.0
26/05:00pm 25.4 26.4 18.6 66 4.3 ESE 11 15 6 8 1007.9 1007.8 0.0
26/04:30pm 25.7 26.3 18.6 65 4.5 E 13 17 7 9 1007.8 1007.7 0.0
26/04:00pm 25.9 26.5 18.6 64 4.7 ENE 13 19 7 10 1007.9 1007.8 0.0
26/03:30pm 26.4 26.2 17.5 58 5.6 E 15 22 8 12 1007.7 1007.6 0.0
26/03:00pm 26.7 26.1 17.5 57 5.8 E 17 24 9 13 1007.8 1007.7 0.0
26/02:30pm 27.3 27.3 18.9 60 5.4 ENE 17 20 9 11 1008.0 1007.9 0.0
26/02:00pm 26.6 26.9 18.7 62 5.1 E 15 22 8 12 1008.3 1008.2 0.0
26/01:30pm 26.8 26.7 17.8 57 5.7 ESE 15 20 8 11 1008.8 1008.7 0.0
26/01:00pm 27.1 27.1 18.1 58 5.7 E 15 22 8 12 1008.9 1008.8 0.0
26/12:30pm 27.7 27.2 19.2 60 5.5 E 20 26 11 14 1009.2 1009.1 0.0
26/12:00pm 27.6 27.5 19.9 63 5.0 E 20 28 11 15 1009.5 1009.4 0.0
26/11:30am 27.3 27.9 19.4 62 5.1 ESE 15 22 8 12 1009.8 1009.7 0.0
26/11:00am 27.4 27.0 18.9 59 5.5 ESE 19 24 10 13 1009.9 1009.8 0.0
26/10:30am 26.8 27.4 19.4 64 4.8 ESE 15 20 8 11 1010.2 1010.1 0.0
26/10:00am 25.2 26.3 18.9 68 4.0 S 11 15 6 8 1010.5 1010.4 0.0
26/09:30am 25.6 26.5 18.3 64 4.6 SSE 11 17 6 9 1010.3 1010.2 0.0
26/09:00am 26.1 27.4 20.2 70 3.9 SSE 13 19 7 10 1010.3 1010.2 0.0
26/08:30am 25.6 26.7 19.7 70 3.8 S 13 17 7 9 1010.2 1010.1 0.0
26/08:00am 25.0 26.5 19.8 73 3.4 S 11 17 6 9 1010.1 1010.0 0.0
26/07:30am 23.8 25.1 19.3 76 2.9 SW 11 17 6 9 1010.2 1010.1 0.0
26/07:00am 22.9 24.3 19.5 81 2.2 SSW 11 15 6 8 1009.9 1009.8 0.0
26/06:30am 21.8 23.5 19.4 86 1.5 SSW 9 15 5 8 1009.7 1009.6 0.0
26/06:00am 20.4 22.5 18.9 91 0.9 S 6 7 3 4 1009.5 1009.4 0.0
26/05:30am 20.3 22.3 19.1 93 0.8 SSW 7 9 4 5 1009.4 1009.3 0.0
26/05:00am 20.3 21.8 19.0 92 0.8 SW 9 11 5 6 1009.3 1009.2 0.0
26/04:30am 20.5 22.7 19.5 94 0.6 WSW 7 9 4 5 1009.4 1009.3 0.0
26/04:00am 20.4 22.4 19.2 93 0.8 SW 7 9 4 5 1009.5 1009.4 0.0
26/03:30am 20.7 22.8 19.4 92 0.8 WSW 7 9 4 5 1009.5 1009.4 0.0
26/03:00am 21.0 22.8 19.6 92 0.9 SW 9 13 5 7 1009.5 1009.4 0.0
26/02:30am 20.9 23.3 19.6 92 0.8 SW 6 9 3 5 1009.6 1009.5 0.0
26/02:00am 21.3 23.3 19.9 92 0.9 SW 9 11 5 6 1010.1 1010.0 0.0
26/01:30am 21.2 23.1 19.7 91 1.0 WSW 9 11 5 6 1010.3 1010.2 0.0
26/01:00am 21.4 23.6 19.7 90 1.1 SSW 7 9 4 5 1010.7 1010.6 0.0
26/12:30am 21.3 23.4 20.1 93 0.8 WSW 9 11 5 6 1010.9 1010.8 0.0
26/12:00am 21.5 23.5 20.0 91 1.0 SW 9 11 5 6 1011.2 1011.1 0.0
 
Date/Time
EST
Tmp

°C
App
Tmp
°C
Dew
Point
°C
Rel
Hum
%
Delta-T

°C
Wind Press
QNH
hPa
Press
MSL
hPa
Rain
since
9 am
mm
Dir
 
Spd
km/h
Gust
km/h
Spd
kts
Gust
kts
25/11:30pm 21.8 23.6 20.4 92 0.9 SW 11 13 6 7 1011.5 1011.4 0.0
25/11:00pm 21.8 24.8 20.1 90 1.1 SW 4 7 2 4 1011.9 1011.8 0.0
25/10:30pm 22.3 24.1 20.4 89 1.2 SW 11 13 6 7 1012.4 1012.3 0.0
25/10:00pm 22.2 24.5 19.9 87 1.5 SW 7 11 4 6 1012.1 1012.0 0.0
25/09:30pm 22.3 24.7 20.0 87 1.5 S 7 9 4 5 1012.1 1012.0 0.0
25/09:00pm 22.8 25.2 20.0 84 1.8 S 7 9 4 5 1012.2 1012.1 0.0
25/08:30pm 23.5 25.2 19.4 78 2.6 S 9 15 5 8 1012.1 1012.0 0.0
25/08:00pm 24.1 24.7 19.4 75 3.0 SE 15 20 8 11 1012.0 1011.9 0.0
25/07:30pm 24.6 24.4 19.4 73 3.3 SE 19 32 10 17 1011.7 1011.6 0.0
25/07:00pm 24.6 24.2 19.4 73 3.3 SE 20 28 11 15 1011.4 1011.3 0.0
25/06:30pm 24.6 25.1 20.1 76 2.9 SE 17 22 9 12 1010.9 1010.8 0.0
25/06:00pm 24.9 24.5 20.2 75 3.1 SE 22 32 12 17 1010.8 1010.7 0.0
25/05:30pm 25.0 24.1 19.8 73 3.4 SSE 24 32 13 17 1010.7 1010.6 0.0
25/05:00pm 25.5 25.1 20.1 72 3.5 SE 22 30 12 16 1010.6 1010.5 0.0
25/04:30pm 25.9 25.0 19.8 69 4.0 SE 24 32 13 17 1010.8 1010.7 0.0
25/04:00pm 27.0 26.1 19.9 65 4.6 SSE 24 37 13 20 1010.6 1010.5 0.0
25/03:30pm 27.0 25.0 19.9 65 4.6 SE 30 39 16 21 1010.5 1010.4 0.0
25/03:00pm 26.9 26.1 20.0 66 4.5 SSE 24 35 13 19 1010.7 1010.6 0.0
25/02:30pm 27.3 26.7 20.4 66 4.5 SSE 24 35 13 19 1010.9 1010.8 0.0
25/02:00pm 26.5 24.9 20.1 68 4.2 SE 28 37 15 20 1011.1 1011.0 0.0
25/01:30pm 27.7 27.3 21.0 67 4.4 SSE 24 33 13 18 1011.4 1011.3 0.0
25/01:00pm 26.7 25.8 19.8 66 4.5 SE 24 33 13 18 1011.6 1011.5 0.0
25/12:30pm 27.9 27.3 20.5 64 4.9 SE 24 33 13 18 1011.7 1011.6 0.0
25/12:00pm 27.8 26.8 20.4 64 4.9 SE 26 35 14 19 1012.0 1011.9 0.0
25/11:30am 27.8 26.8 20.4 64 4.9 SE 26 35 14 19 1012.2 1012.1 0.0
25/11:00am 27.4 26.2 20.0 64 4.8 SE 26 35 14 19 1012.5 1012.4 0.0
25/10:30am 27.6 26.5 20.2 64 4.8 SE 26 35 14 19 1012.7 1012.6 0.0
25/10:00am 26.7 26.1 19.8 66 4.5 SE 22 30 12 16 1012.9 1012.8 0.0
25/09:30am 26.8 26.6 19.7 65 4.6 SE 20 30 11 16 1012.8 1012.7 0.0
25/09:00am 25.3 26.9 20.8 76 3.0 S 13 22 7 12 1012.8 1012.7 4.4
25/08:30am 25.5 26.7 21.4 78 2.7 S 17 22 9 12 1012.6 1012.5 4.4
25/08:00am 24.8 26.1 20.9 79 2.6 S 15 22 8 12 1012.5 1012.4 4.4
25/07:30am 24.1 25.9 21.2 84 1.9 SW 13 17 7 9 1012.4 1012.3 4.4

Latest Capital City Observations: Canberra | Sydney | Melbourne | Brisbane | Adelaide | Perth | Hobart | Darwin

Other Formats:

Comma delimited format used in spreadsheet applications
http://www.bom.gov.au/fwo/IDQ60901/IDQ60901.94592.axf

JavaScript Object Notation format (JSON) in row-major order
http://www.bom.gov.au/fwo/IDQ60901/IDQ60901.94592.json